Time;durP1;ratioP1;P1;durP2;ratioP2;P2;SDS_P1;SDS_P2;PMS_P1;PMS_P2;Temp;Humidity;BMP_temperature;BMP_pressure;BME280_temperature;BME280_humidity;BME280_pressure;Samples;Min_cycle;Max_cycle;Signal;HPM_P1;HPM_P2
2023/01/09 00:01:26;;;;;;;9.45;8.45;;;9.00;99.90;;;;;;5074007;28;20566;-78
2023/01/09 00:03:53;;;;;;;11.43;8.48;;;9.00;99.90;;;;;;5074263;28;20243;-78
2023/01/09 00:06:22;;;;;;;9.95;8.48;;;9.00;99.90;;;;;;5062695;28;20318;-78
2023/01/09 00:08:50;;;;;;;8.75;7.95;;;9.00;99.90;;;;;;5069411;28;20227;-78
2023/01/09 00:11:18;;;;;;;8.93;8.00;;;8.90;99.90;;;;;;5059935;28;20229;-79
2023/01/09 00:13:46;;;;;;;10.20;8.18;;;9.00;99.90;;;;;;5051469;28;20682;-78
2023/01/09 00:16:13;;;;;;;11.38;8.07;;;9.00;99.90;;;;;;5052502;28;20217;-78
2023/01/09 00:18:40;;;;;;;8.80;7.97;;;9.00;99.90;;;;;;5040629;28;20572;-78
2023/01/09 00:21:09;;;;;;;9.73;7.85;;;8.90;99.90;;;;;;5052063;28;20247;-78
2023/01/09 00:23:37;;;;;;;10.68;8.68;;;8.90;99.90;;;;;;5054113;28;20235;-78
2023/01/09 00:26:09;;;;;;;11.40;8.65;;;8.90;99.90;;;;;;5053953;28;20223;-79
2023/01/09 00:28:50;;;;;;;11.93;8.82;;;8.90;99.90;;;;;;5055219;28;20224;-78
2023/01/09 00:31:25;;;;;;;13.13;11.77;;;8.90;99.90;;;;;;5035480;28;20238;-77
2023/01/09 00:33:58;;;;;;;11.20;10.05;;;8.90;99.90;;;;;;5053231;28;20235;-78
2023/01/09 00:36:25;;;;;;;9.95;8.27;;;8.90;99.90;;;;;;5053619;28;20216;-78
2023/01/09 00:38:57;;;;;;;9.82;8.55;;;8.90;99.90;;;;;;5052901;28;20259;-77
2023/01/09 00:41:27;;;;;;;10.05;8.50;;;8.90;99.90;;;;;;5053800;28;20674;-78
2023/01/09 00:44:04;;;;;;;11.15;8.65;;;8.80;99.90;;;;;;5054472;28;20536;-77
2023/01/09 00:46:37;;;;;;;9.60;8.55;;;8.80;99.90;;;;;;5069983;28;20259;-78
2023/01/09 00:49:07;;;;;;;10.02;7.60;;;8.80;99.90;;;;;;5062626;28;20228;-78
2023/01/09 00:51:34;;;;;;;9.88;8.68;;;8.80;99.90;;;;;;5072418;28;20247;-76
2023/01/09 00:54:04;;;;;;;9.75;8.82;;;8.70;99.90;;;;;;5073550;28;20234;-78
2023/01/09 00:56:34;;;;;;;10.10;8.73;;;8.70;99.90;;;;;;5073104;28;20228;-78
2023/01/09 00:59:05;;;;;;;10.00;8.95;;;8.70;99.90;;;;;;5073820;28;20658;-78
2023/01/09 01:01:32;;;;;;;10.30;9.38;;;8.70;99.90;;;;;;5074407;28;20232;-78
2023/01/09 01:07:37;;;;;;;9.23;8.32;;;8.60;99.90;;;;;;5074228;28;20246;-78
2023/01/09 01:09:33;;;;;;;13.32;10.25;;;8.60;99.90;;;;;;5059058;28;20317;-79
2023/01/09 01:12:05;;;;;;;11.45;10.32;;;8.50;99.90;;;;;;5054430;28;20239;-78
2023/01/09 01:14:34;;;;;;;13.63;10.98;;;8.60;99.90;;;;;;5053434;28;20228;-77
2023/01/09 01:17:01;;;;;;;11.68;10.57;;;8.50;99.90;;;;;;5053831;28;20232;-78
2023/01/09 01:19:33;;;;;;;10.65;9.45;;;8.50;99.90;;;;;;5042197;28;20228;-78
2023/01/09 01:22:00;;;;;;;10.73;9.05;;;8.50;99.90;;;;;;5054237;28;20251;-77
2023/01/09 01:24:28;;;;;;;11.93;9.45;;;8.50;99.90;;;;;;5044804;28;20232;-78
2023/01/09 01:26:56;;;;;;;9.77;8.77;;;8.50;99.90;;;;;;5053126;28;20255;-78
2023/01/09 01:29:23;;;;;;;10.27;9.20;;;8.40;99.90;;;;;;5053049;28;20331;-78
2023/01/09 01:32:07;;;;;;;10.63;9.05;;;8.40;99.90;;;;;;5053838;28;20670;-77
2023/01/09 01:34:34;;;;;;;14.50;11.57;;;8.50;99.90;;;;;;5052509;28;20224;-77
2023/01/09 01:37:05;;;;;;;11.80;10.63;;;8.40;99.90;;;;;;5051824;28;20282;-77
2023/01/09 01:39:37;;;;;;;16.20;11.70;;;8.40;99.90;;;;;;5042400;28;20251;-77
2023/01/09 01:42:09;;;;;;;9.15;8.20;;;8.40;99.90;;;;;;5053248;28;20220;-77
2023/01/09 01:45:01;;;;;;;11.73;10.48;;;8.40;99.90;;;;;;5045273;28;20228;-77
2023/01/09 01:47:42;;;;;;;12.77;10.50;;;8.40;99.90;;;;;;5052522;28;20228;-77
2023/01/09 01:50:16;;;;;;;10.50;9.45;;;8.40;99.90;;;;;;5052760;28;20225;-77
2023/01/09 01:52:52;;;;;;;13.70;10.77;;;8.40;99.90;;;;;;5051563;28;20240;-77
2023/01/09 01:55:20;;;;;;;13.48;10.98;;;8.40;99.90;;;;;;5056551;28;20232;-78
2023/01/09 01:57:50;;;;;;;11.98;9.70;;;8.40;99.90;;;;;;5053399;28;20225;-77
2023/01/09 02:00:35;;;;;;;13.40;10.90;;;8.40;99.90;;;;;;5052110;28;20315;-78
2023/01/09 02:03:07;;;;;;;10.65;9.60;;;8.40;99.90;;;;;;5051651;28;20225;-78
2023/01/09 02:05:35;;;;;;;14.10;9.75;;;8.40;99.90;;;;;;5053400;28;20287;-78
2023/01/09 02:08:02;;;;;;;11.60;10.40;;;8.30;99.90;;;;;;5059367;28;20311;-78
2023/01/09 02:10:30;;;;;;;12.55;10.90;;;8.40;99.90;;;;;;5092391;28;20298;-78
2023/01/09 02:13:01;;;;;;;12.65;10.23;;;8.30;99.90;;;;;;5081309;28;20253;-77
2023/01/09 02:15:35;;;;;;;12.63;10.90;;;8.30;99.90;;;;;;5091774;28;20223;-78
2023/01/09 02:18:30;;;;;;;12.65;10.75;;;8.40;99.90;;;;;;5092600;28;20227;-78
2023/01/09 02:21:01;;;;;;;11.68;9.70;;;8.30;99.90;;;;;;5082688;28;20261;-77
2023/01/09 02:24:08;;;;;;;12.02;10.82;;;8.20;99.90;;;;;;5091930;28;20235;-77
2023/01/09 02:27:00;;;;;;;11.32;10.05;;;8.30;99.90;;;;;;5092674;28;20215;-78
2023/01/09 02:29:53;;;;;;;14.00;10.98;;;8.20;99.90;;;;;;5093051;28;20245;-78
2023/01/09 02:32:33;;;;;;;13.38;11.85;;;8.10;99.90;;;;;;5081608;28;20727;-77
2023/01/09 02:35:13;;;;;;;13.63;11.52;;;8.10;99.90;;;;;;5092739;28;20716;-77
2023/01/09 02:37:48;;;;;;;13.20;11.07;;;8.00;99.90;;;;;;5092083;28;20679;-77
2023/01/09 02:40:22;;;;;;;13.30;11.70;;;8.00;99.90;;;;;;5092621;28;20234;-77
2023/01/09 02:42:55;;;;;;;12.18;10.95;;;7.90;99.90;;;;;;5092667;28;20219;-78
2023/01/09 02:45:25;;;;;;;13.60;12.20;;;8.00;99.90;;;;;;5083530;28;20719;-77
2023/01/09 02:47:53;;;;;;;12.50;11.10;;;8.00;99.90;;;;;;5071041;28;20219;-77
2023/01/09 02:50:24;;;;;;;13.27;11.88;;;7.90;99.90;;;;;;5072619;28;20319;-78
2023/01/09 02:53:21;;;;;;;12.57;10.77;;;7.80;99.90;;;;;;5072155;28;20300;-77
2023/01/09 02:56:09;;;;;;;14.40;12.27;;;7.80;99.90;;;;;;5067619;28;20307;-78
2023/01/09 02:58:53;;;;;;;14.20;11.45;;;7.80;99.90;;;;;;5071339;28;20231;-77
2023/01/09 03:01:27;;;;;;;14.48;12.57;;;7.80;99.90;;;;;;5062343;28;20262;-78
2023/01/09 03:04:08;;;;;;;15.95;11.98;;;7.80;99.90;;;;;;5070863;28;20543;-78
2023/01/09 03:06:45;;;;;;;14.68;13.13;;;7.80;99.90;;;;;;5071060;28;20219;-77
2023/01/09 03:09:19;;;;;;;16.02;12.95;;;7.80;99.90;;;;;;5071917;28;20243;-77
2023/01/09 03:11:49;;;;;;;14.32;12.40;;;7.70;99.90;;;;;;5070642;28;20242;-77
2023/01/09 03:14:26;;;;;;;14.00;12.43;;;7.70;99.90;;;;;;5072234;28;20626;-77
2023/01/09 03:17:02;;;;;;;15.27;13.32;;;7.70;99.90;;;;;;5071215;28;20232;-77
2023/01/09 03:19:33;;;;;;;15.40;13.05;;;7.70;99.90;;;;;;5061499;28;20237;-77
2023/01/09 03:22:00;;;;;;;14.40;12.05;;;7.70;99.90;;;;;;5071813;28;20680;-77
2023/01/09 03:24:29;;;;;;;13.35;11.70;;;7.70;99.90;;;;;;5076283;28;20312;-77
2023/01/09 03:27:03;;;;;;;14.73;12.30;;;7.70;99.90;;;;;;5074894;28;20232;-77
2023/01/09 03:29:30;;;;;;;15.55;12.25;;;7.70;99.90;;;;;;5075500;28;20250;-77
2023/01/09 03:31:57;;;;;;;15.10;12.35;;;7.70;99.90;;;;;;5074933;28;20289;-77
2023/01/09 03:34:28;;;;;;;17.60;12.35;;;7.80;99.90;;;;;;5075959;28;20335;-76
2023/01/09 03:37:00;;;;;;;15.02;12.43;;;7.80;99.90;;;;;;5075091;28;20227;-76
2023/01/09 03:39:27;;;;;;;13.73;11.95;;;7.80;99.90;;;;;;5075428;28;20290;-77
2023/01/09 03:41:56;;;;;;;14.02;12.32;;;7.80;99.90;;;;;;5075020;28;20224;-76
2023/01/09 03:44:26;;;;;;;14.50;11.80;;;7.80;99.90;;;;;;5067685;28;20232;-76
2023/01/09 03:46:53;;;;;;;17.55;12.27;;;7.90;99.90;;;;;;5074635;28;20565;-76
2023/01/09 03:49:24;;;;;;;15.23;12.48;;;7.90;99.90;;;;;;5075199;28;20259;-77
2023/01/09 03:51:51;;;;;;;14.93;11.75;;;7.90;99.90;;;;;;5074382;28;20604;-77
2023/01/09 03:54:19;;;;;;;12.52;11.23;;;7.90;99.90;;;;;;5075270;28;20595;-78
2023/01/09 03:56:49;;;;;;;14.35;11.45;;;7.90;99.90;;;;;;5074082;28;20252;-78
2023/01/09 03:59:16;;;;;;;13.43;11.68;;;8.00;99.90;;;;;;5074988;28;20323;-77
2023/01/09 04:01:43;;;;;;;15.63;12.68;;;8.00;99.90;;;;;;5074647;28;20228;-77
2023/01/09 04:04:10;;;;;;;14.05;12.60;;;8.00;99.90;;;;;;5075291;28;20231;-77
2023/01/09 04:06:40;;;;;;;15.00;13.38;;;8.00;99.90;;;;;;5074771;28;20235;-77
2023/01/09 04:09:07;;;;;;;15.98;13.05;;;8.00;99.90;;;;;;5073708;28;20220;-78
2023/01/09 04:11:36;;;;;;;12.88;11.13;;;8.10;99.90;;;;;;5075243;28;20236;-78
2023/01/09 04:14:03;;;;;;;15.20;13.60;;;8.10;99.90;;;;;;5075315;28;20247;-78
2023/01/09 04:16:32;;;;;;;13.25;11.63;;;8.10;99.90;;;;;;5080590;28;20258;-77
2023/01/09 04:18:59;;;;;;;17.75;14.00;;;8.10;99.90;;;;;;5073955;28;20231;-77
2023/01/09 04:21:26;;;;;;;13.45;11.82;;;8.20;99.90;;;;;;5074817;28;20227;-77
2023/01/09 04:23:53;;;;;;;15.57;12.20;;;8.20;99.90;;;;;;5074450;28;20665;-77
2023/01/09 04:26:22;;;;;;;14.45;12.32;;;8.20;99.90;;;;;;5075041;28;20228;-76
2023/01/09 04:28:51;;;;;;;15.07;12.63;;;8.20;99.90;;;;;;5080120;28;20292;-77
2023/01/09 04:31:21;;;;;;;12.82;11.52;;;8.20;99.90;;;;;;5074976;28;20224;-76
2023/01/09 04:33:48;;;;;;;16.38;13.48;;;8.30;99.90;;;;;;5073823;28;20310;-77
2023/01/09 04:36:15;;;;;;;14.85;11.70;;;8.20;99.90;;;;;;5074096;28;20224;-77
2023/01/09 04:38:44;;;;;;;13.75;12.13;;;8.30;99.90;;;;;;5074335;28;20235;-77
2023/01/09 04:41:47;;;;;;;12.98;11.52;;;8.30;99.90;;;;;;5090899;28;20242;-76
2023/01/09 04:44:00;;;;;;;13.27;11.75;;;8.30;99.90;;;;;;5093847;28;20550;-77
2023/01/09 04:46:27;;;;;;;13.57;12.15;;;8.40;99.90;;;;;;5094477;28;20227;-77
2023/01/09 04:48:54;;;;;;;14.77;13.27;;;8.30;99.90;;;;;;5093937;28;20224;-78
2023/01/09 04:51:21;;;;;;;15.00;13.38;;;8.40;99.90;;;;;;5094743;28;20581;-77
2023/01/09 04:53:48;;;;;;;13.40;11.20;;;8.30;99.90;;;;;;5094631;28;20243;-77
2023/01/09 04:56:17;;;;;;;13.95;12.48;;;8.30;99.90;;;;;;5085521;28;20610;-78
2023/01/09 04:58:44;;;;;;;14.55;12.75;;;8.30;99.90;;;;;;5094166;28;20223;-78
2023/01/09 05:01:17;;;;;;;14.98;13.02;;;8.30;99.90;;;;;;5093639;28;20277;-77
2023/01/09 05:03:45;;;;;;;12.80;11.50;;;8.30;99.90;;;;;;5093692;28;20223;-77
2023/01/09 05:06:12;;;;;;;14.25;11.57;;;8.30;99.90;;;;;;5094208;28;20239;-77
2023/01/09 05:08:39;;;;;;;13.95;11.73;;;8.30;99.90;;;;;;5094221;28;20223;-77
2023/01/09 05:11:06;;;;;;;13.40;11.70;;;8.30;99.90;;;;;;5093660;28;20227;-77
2023/01/09 05:13:35;;;;;;;12.73;11.07;;;8.40;99.90;;;;;;5085238;28;20899;-77
2023/01/09 05:16:04;;;;;;;16.30;13.38;;;8.30;99.90;;;;;;5072819;28;20216;-77
2023/01/09 05:18:32;;;;;;;14.13;12.38;;;8.30;99.90;;;;;;5072519;28;20220;-77
2023/01/09 05:21:01;;;;;;;14.93;13.05;;;8.30;99.90;;;;;;5072906;28;20289;-77
2023/01/09 05:23:28;;;;;;;14.70;12.30;;;8.30;99.90;;;;;;5073552;28;20247;-77
2023/01/09 05:25:56;;;;;;;17.25;13.80;;;8.30;99.90;;;;;;5073679;28;20353;-78
2023/01/09 05:28:23;;;;;;;14.88;12.05;;;8.40;99.90;;;;;;5064722;28;20257;-77
2023/01/09 05:30:53;;;;;;;13.40;11.57;;;8.40;99.90;;;;;;5073727;28;20254;-78
2023/01/09 05:33:20;;;;;;;13.88;12.45;;;8.40;99.90;;;;;;5072950;28;20217;-76
2023/01/09 05:35:48;;;;;;;17.00;13.15;;;8.40;99.90;;;;;;5073253;28;20220;-77
2023/01/09 05:38:17;;;;;;;16.20;11.73;;;8.40;99.90;;;;;;5072940;28;20220;-77
2023/01/09 05:40:44;;;;;;;16.20;13.68;;;8.40;99.90;;;;;;5073459;28;20228;-78
2023/01/09 05:43:11;;;;;;;13.07;11.77;;;8.50;99.90;;;;;;5072598;28;20232;-77
2023/01/09 05:45:38;;;;;;;15.00;11.15;;;8.50;99.90;;;;;;5072994;28;20639;-77
2023/01/09 05:48:05;;;;;;;12.45;10.70;;;8.50;99.90;;;;;;5073273;28;20251;-77
2023/01/09 05:50:39;;;;;;;13.05;11.32;;;8.50;99.90;;;;;;5052752;28;20744;-77
2023/01/09 05:53:08;;;;;;;13.98;12.40;;;8.60;99.90;;;;;;5073374;28;20251;-77
2023/01/09 05:55:35;;;;;;;14.02;12.07;;;8.60;99.90;;;;;;5072765;28;20224;-78
2023/01/09 05:58:08;;;;;;;17.92;12.82;;;8.60;99.90;;;;;;5074077;28;20701;-77
2023/01/09 06:00:35;;;;;;;13.90;11.68;;;8.60;99.90;;;;;;5072325;28;20247;-77
2023/01/09 06:03:05;;;;;;;16.65;12.55;;;8.50;99.90;;;;;;5073363;28;20662;-78
2023/01/09 06:05:32;;;;;;;14.35;12.10;;;8.60;99.90;;;;;;5071949;28;20235;-77
2023/01/09 06:08:04;;;;;;;14.43;11.85;;;8.60;99.90;;;;;;5073590;28;20224;-77
2023/01/09 06:10:32;;;;;;;12.80;11.50;;;8.60;99.90;;;;;;5072646;28;20224;-77
2023/01/09 06:12:59;;;;;;;17.33;12.80;;;8.60;99.90;;;;;;5072604;28;20601;-76
2023/01/09 06:15:29;;;;;;;15.80;12.50;;;8.60;99.90;;;;;;5072179;28;20227;-77
2023/01/09 06:17:58;;;;;;;17.08;12.98;;;8.60;99.90;;;;;;5072770;28;20223;-77
2023/01/09 06:23:16;;;;;;;15.98;12.38;;;8.60;99.90;;;;;;5020339;28;20228;-77
2023/01/09 06:25:44;;;;;;;15.07;11.80;;;8.60;99.90;;;;;;5072826;28;20677;-77
2023/01/09 06:28:11;;;;;;;16.77;13.98;;;8.60;99.90;;;;;;5060423;28;20491;-77
2023/01/09 06:30:41;;;;;;;15.95;12.55;;;8.60;99.90;;;;;;5061619;28;20266;-77
2023/01/09 06:33:08;;;;;;;14.77;11.90;;;8.60;99.90;;;;;;5072211;28;20224;-78
2023/01/09 06:35:42;;;;;;;17.83;13.05;;;8.60;99.90;;;;;;5071892;28;20308;-77
2023/01/09 06:38:09;;;;;;;15.52;12.70;;;8.60;99.90;;;;;;5062116;28;20696;-77
2023/01/09 06:40:36;;;;;;;17.30;13.40;;;8.60;99.90;;;;;;5072237;28;20227;-78
2023/01/09 06:43:04;;;;;;;16.80;13.20;;;8.60;99.90;;;;;;5072330;28;20220;-77
2023/01/09 06:45:35;;;;;;;14.88;12.68;;;8.60;99.90;;;;;;5072020;28;20223;-77
2023/01/09 06:48:02;;;;;;;14.48;12.43;;;8.70;99.90;;;;;;5072715;28;20314;-77
2023/01/09 06:50:29;;;;;;;15.50;13.23;;;8.60;99.90;;;;;;5071752;28;20228;-78
2023/01/09 06:52:56;;;;;;;18.55;14.43;;;8.60;99.90;;;;;;5072506;28;20311;-78
2023/01/09 06:55:25;;;;;;;15.95;13.48;;;8.60;99.90;;;;;;5072279;28;20256;-77
2023/01/09 06:57:54;;;;;;;16.77;13.68;;;8.60;99.90;;;;;;5062355;28;20620;-77
2023/01/09 07:00:23;;;;;;;17.73;14.15;;;8.60;99.90;;;;;;5075346;28;20259;-77
2023/01/09 07:02:49;;;;;;;14.23;12.52;;;8.70;99.90;;;;;;5075283;28;20227;-77
2023/01/09 07:05:17;;;;;;;18.52;14.43;;;8.70;99.90;;;;;;5064445;28;20228;-77
2023/01/09 07:07:46;;;;;;;16.23;13.07;;;8.60;99.90;;;;;;5075135;28;20228;-77
2023/01/09 07:10:14;;;;;;;18.38;14.18;;;8.70;99.90;;;;;;5076382;28;20285;-77
2023/01/09 07:12:41;;;;;;;15.77;14.15;;;8.70;99.90;;;;;;5075500;28;20251;-77
2023/01/09 07:15:13;;;;;;;17.85;14.00;;;8.60;99.90;;;;;;5076026;28;20239;-77
2023/01/09 07:17:41;;;;;;;16.98;15.27;;;8.50;99.90;;;;;;5075777;28;20296;-79
2023/01/09 07:20:10;;;;;;;22.27;13.27;;;8.50;99.90;;;;;;5075634;28;20219;-79
2023/01/09 07:22:40;;;;;;;15.40;13.10;;;8.50;99.90;;;;;;5075288;28;20238;-78
2023/01/09 07:25:13;;;;;;;17.73;15.05;;;8.50;99.90;;;;;;5075604;28;20280;-78
2023/01/09 07:27:41;;;;;;;16.20;13.38;;;8.50;99.90;;;;;;5065341;28;20264;-78
2023/01/09 07:30:09;;;;;;;15.65;13.45;;;8.40;99.90;;;;;;5075749;28;20595;-78
2023/01/09 07:32:37;;;;;;;20.02;13.57;;;8.40;99.90;;;;;;5076089;28;20241;-79
2023/01/09 07:35:06;;;;;;;18.42;12.68;;;8.40;99.90;;;;;;5075441;28;20216;-78
2023/01/09 07:37:33;;;;;;;19.83;15.52;;;8.40;99.90;;;;;;5076010;28;20621;-78
2023/01/09 07:40:04;;;;;;;16.52;13.38;;;8.40;99.90;;;;;;5075059;28;20228;-78
2023/01/09 07:42:31;;;;;;;16.30;13.10;;;8.50;99.90;;;;;;5075869;28;20749;-78
2023/01/09 07:45:02;;;;;;;16.48;12.98;;;8.60;99.90;;;;;;5074968;28;20228;-78
2023/01/09 07:47:29;;;;;;;15.02;12.88;;;8.50;99.90;;;;;;5075335;28;20247;-78
2023/01/09 07:50:02;;;;;;;20.75;13.25;;;8.50;99.90;;;;;;5075054;28;20302;-77
2023/01/09 07:52:31;;;;;;;15.15;13.50;;;8.50;99.90;;;;;;5075828;28;20277;-77
2023/01/09 07:55:00;;;;;;;18.45;13.30;;;8.50;99.90;;;;;;5075408;28;20220;-78
2023/01/09 07:57:28;;;;;;;17.92;13.93;;;8.50;99.90;;;;;;5075501;28;20263;-77
2023/01/09 07:59:55;;;;;;;15.88;12.93;;;8.50;99.90;;;;;;5064449;28;20228;-77
2023/01/09 08:02:24;;;;;;;19.40;15.00;;;8.50;99.90;;;;;;5074351;28;20303;-78
2023/01/09 08:04:51;;;;;;;19.05;14.65;;;8.60;99.90;;;;;;5073528;28;20227;-77
2023/01/09 08:07:18;;;;;;;15.38;11.93;;;8.60;99.90;;;;;;5074910;28;20293;-78
2023/01/09 08:09:48;;;;;;;18.08;13.18;;;8.60;99.90;;;;;;5074827;28;20228;-77
2023/01/09 08:12:15;;;;;;;15.20;12.88;;;8.60;99.90;;;;;;5074392;28;20220;-78
2023/01/09 08:14:44;;;;;;;17.00;12.35;;;8.60;99.90;;;;;;5075380;28;20305;-77
2023/01/09 08:17:13;;;;;;;14.50;13.00;;;8.60;99.90;;;;;;5074917;28;21209;-78
2023/01/09 08:19:42;;;;;;;16.75;14.05;;;8.50;99.90;;;;;;5075013;28;20224;-78
2023/01/09 08:22:09;;;;;;;17.35;13.48;;;8.60;99.90;;;;;;5064298;28;20228;-78
2023/01/09 08:24:38;;;;;;;14.38;12.10;;;8.60;99.90;;;;;;5073811;28;20243;-77
2023/01/09 08:27:12;;;;;;;16.70;13.38;;;8.60;99.90;;;;;;5064382;28;20236;-76
2023/01/09 08:29:41;;;;;;;15.48;12.57;;;8.70;99.90;;;;;;5074249;28;20228;-79
2023/01/09 08:32:13;;;;;;;15.20;12.75;;;8.70;99.90;;;;;;5066879;28;20224;-78
2023/01/09 08:34:48;;;;;;;16.83;13.20;;;8.70;99.90;;;;;;5075228;28;20296;-78
2023/01/09 08:37:23;;;;;;;14.27;12.65;;;8.70;99.90;;;;;;5074343;28;20216;-78
2023/01/09 08:39:53;;;;;;;17.10;14.18;;;8.70;99.90;;;;;;5065866;28;20246;-77
2023/01/09 08:47:52;;;;;;;18.50;13.23;;;8.70;99.90;;;;;;5074307;28;20314;-77
2023/01/09 08:50:20;;;;;;;16.17;12.52;;;8.70;99.90;;;;;;5073978;28;20316;-78
2023/01/09 08:52:50;;;;;;;19.23;12.52;;;8.70;99.90;;;;;;5073984;28;20306;-77
2023/01/09 08:55:17;;;;;;;19.80;15.70;;;8.80;99.90;;;;;;5073630;28;20262;-77
2023/01/09 08:57:49;;;;;;;16.83;14.50;;;8.70;99.90;;;;;;5065192;28;20323;-77
2023/01/09 09:00:25;;;;;;;20.00;15.52;;;8.70;99.90;;;;;;5073584;28;20307;-79
2023/01/09 09:02:53;;;;;;;17.17;14.55;;;8.70;99.90;;;;;;5073692;28;20302;-77
2023/01/09 09:05:26;;;;;;;15.63;12.93;;;8.80;99.90;;;;;;5073447;28;20228;-78
2023/01/09 09:07:55;;;;;;;19.30;15.00;;;8.80;99.90;;;;;;5073955;28;20315;-77
2023/01/09 09:10:23;;;;;;;15.23;11.65;;;8.80;99.90;;;;;;5073515;28;20242;-77
2023/01/09 09:12:54;;;;;;;13.65;11.50;;;8.80;99.90;;;;;;5073739;28;20224;-77
2023/01/09 09:15:25;;;;;;;17.17;12.43;;;8.90;99.90;;;;;;5062776;28;20231;-78
2023/01/09 09:17:54;;;;;;;15.63;12.25;;;8.80;99.90;;;;;;5073340;28;20220;-77
2023/01/09 09:20:22;;;;;;;15.35;12.15;;;8.90;99.90;;;;;;5071808;28;21336;-77
2023/01/09 09:22:58;;;;;;;17.17;12.15;;;8.90;99.90;;;;;;5062928;28;20281;-78
2023/01/09 09:25:26;;;;;;;19.77;13.13;;;9.00;99.90;;;;;;5073184;28;20230;-78
2023/01/09 09:27:59;;;;;;;13.73;11.77;;;9.00;99.90;;;;;;5073802;28;20224;-78
2023/01/09 09:30:27;;;;;;;16.98;11.57;;;9.00;99.90;;;;;;5073180;28;20573;-77
2023/01/09 09:32:54;;;;;;;13.88;12.35;;;9.10;99.90;;;;;;5073778;28;20561;-77
2023/01/09 09:35:21;;;;;;;14.85;12.93;;;9.10;99.90;;;;;;5073144;28;20234;-76
2023/01/09 09:37:55;;;;;;;12.90;11.63;;;9.10;99.90;;;;;;5073657;28;20220;-77
2023/01/09 09:40:37;;;;;;;15.52;12.50;;;9.10;99.90;;;;;;5072732;28;20682;-77
2023/01/09 09:46:30;;;;;;;15.43;11.98;;;9.10;99.90;;;;;;5072735;28;20317;-78
2023/01/09 09:49:03;;;;;;;12.38;11.15;;;9.20;99.90;;;;;;5072077;28;20249;-77
2023/01/09 09:51:59;;;;;;;15.07;11.70;;;9.20;99.90;;;;;;5072869;28;20224;-77
2023/01/09 09:54:31;;;;;;;15.05;11.23;;;9.30;99.90;;;;;;5070362;28;20216;-77
2023/01/09 09:57:03;;;;;;;16.60;12.00;;;9.30;99.90;;;;;;5072089;28;20224;-77
2023/01/09 09:59:55;;;;;;;16.52;12.60;;;9.20;99.90;;;;;;5062949;28;20235;-77
2023/01/09 10:02:28;;;;;;;13.82;12.18;;;9.30;99.90;;;;;;5067883;28;20662;-77
2023/01/09 10:05:06;;;;;;;19.33;15.18;;;9.30;99.90;;;;;;5073410;28;20295;-77
2023/01/09 10:07:40;;;;;;;15.75;12.80;;;9.40;99.90;;;;;;5072270;28;20607;-77
2023/01/09 10:10:14;;;;;;;12.68;10.68;;;9.40;99.90;;;;;;5072224;28;20230;-78
2023/01/09 10:12:53;;;;;;;12.48;10.70;;;9.50;99.90;;;;;;5071554;28;20243;-78
2023/01/09 10:15:31;;;;;;;14.55;12.07;;;9.50;99.90;;;;;;5070464;28;20227;-78
2023/01/09 10:18:13;;;;;;;13.60;11.02;;;9.50;99.90;;;;;;5062886;28;20319;-78
2023/01/09 10:20:50;;;;;;;11.88;9.88;;;9.60;99.90;;;;;;5058462;28;20277;-78
2023/01/09 10:23:41;;;;;;;10.38;9.05;;;9.60;99.90;;;;;;5072793;28;20303;-78
2023/01/09 10:26:16;;;;;;;15.48;11.00;;;9.70;99.90;;;;;;5072021;28;20228;-78
2023/01/09 10:29:18;;;;;;;11.90;9.70;;;9.70;99.90;;;;;;5072438;28;20223;-78
2023/01/09 10:31:58;;;;;;;10.95;8.55;;;9.80;99.90;;;;;;5073072;28;20291;-77
2023/01/09 10:34:37;;;;;;;12.68;9.35;;;9.90;99.90;;;;;;5073459;28;20653;-77
2023/01/09 10:37:11;;;;;;;10.57;8.20;;;9.90;99.90;;;;;;5072174;28;20220;-78
2023/01/09 10:39:48;;;;;;;10.10;8.38;;;9.90;99.90;;;;;;5072260;28;20665;-78
2023/01/09 10:42:24;;;;;;;9.10;8.15;;;10.00;99.90;;;;;;5061747;28;20228;-78
2023/01/09 10:44:57;;;;;;;9.13;8.20;;;10.00;99.90;;;;;;5072186;28;20264;-78
2023/01/09 10:47:33;;;;;;;10.07;8.70;;;10.00;99.90;;;;;;5071718;28;20224;-78
2023/01/09 10:50:01;;;;;;;8.93;8.15;;;10.00;99.90;;;;;;5084109;28;20231;-77
2023/01/09 10:52:34;;;;;;;10.82;9.02;;;10.00;99.90;;;;;;5078738;28;20243;-78
2023/01/09 10:55:14;;;;;;;9.38;7.28;;;10.00;99.90;;;;;;5079946;28;20219;-77
2023/01/09 10:57:43;;;;;;;8.68;7.82;;;10.10;99.90;;;;;;5092350;28;20223;-78
2023/01/09 11:00:26;;;;;;;8.35;7.55;;;10.10;99.90;;;;;;5091659;28;20310;-78
2023/01/09 11:02:55;;;;;;;7.80;7.00;;;10.20;99.90;;;;;;5092359;28;20246;-78
2023/01/09 11:05:25;;;;;;;8.73;7.88;;;10.20;99.90;;;;;;5092618;28;20231;-78
2023/01/09 11:08:00;;;;;;;7.63;6.82;;;10.20;99.90;;;;;;5092280;28;20257;-78
2023/01/09 11:10:46;;;;;;;9.25;8.35;;;10.20;99.90;;;;;;5091872;28;20306;-78
2023/01/09 11:13:35;;;;;;;8.23;7.43;;;10.20;99.90;;;;;;5091282;28;20317;-78
2023/01/09 11:16:06;;;;;;;11.25;7.35;;;10.20;99.90;;;;;;5088320;28;20226;-79
2023/01/09 11:18:49;;;;;;;11.55;7.93;;;10.30;99.90;;;;;;5091501;28;20223;-78
2023/01/09 11:21:34;;;;;;;8.45;7.53;;;10.30;99.90;;;;;;5081874;28;20824;-79
2023/01/09 11:24:26;;;;;;;7.85;7.13;;;10.30;99.90;;;;;;5092023;28;20314;-80
2023/01/09 11:27:00;;;;;;;8.90;6.65;;;10.30;99.90;;;;;;5091771;28;20631;-79
2023/01/09 11:29:31;;;;;;;8.75;6.28;;;10.30;99.90;;;;;;5079815;28;20223;-79
2023/01/09 11:32:00;;;;;;;6.15;5.55;;;10.30;99.90;;;;;;5079500;28;20585;-78
2023/01/09 11:34:31;;;;;;;6.60;5.97;;;10.40;99.90;;;;;;5091225;28;20223;-77
2023/01/09 11:37:23;;;;;;;7.50;6.45;;;10.40;99.90;;;;;;5092342;28;20223;-77
2023/01/09 11:39:55;;;;;;;6.75;5.78;;;10.40;99.90;;;;;;5088828;28;20230;-77
2023/01/09 11:45:15;;;;;;;6.20;5.20;;;10.40;99.90;;;;;;5093805;28;20657;-78
2023/01/09 11:47:43;;;;;;;8.63;6.38;;;10.40;99.90;;;;;;5096307;28;20335;-77
2023/01/09 11:50:23;;;;;;;7.78;5.93;;;10.40;99.90;;;;;;5087939;28;20224;-78
2023/01/09 11:53:24;;;;;;;10.15;7.85;;;10.50;99.90;;;;;;5074694;28;20219;-78
2023/01/09 11:55:57;;;;;;;9.27;8.20;;;10.50;99.90;;;;;;5074683;28;20228;-78
2023/01/09 11:58:31;;;;;;;10.18;7.50;;;10.50;99.90;;;;;;5091026;28;20220;-78
2023/01/09 12:01:06;;;;;;;7.65;6.45;;;10.50;99.90;;;;;;5094903;28;20231;-78
2023/01/09 12:04:12;;;;;;;5.70;5.20;;;10.50;99.90;;;;;;5095307;28;20310;-78
2023/01/09 12:07:05;;;;;;;7.75;5.13;;;10.50;99.90;;;;;;5085695;28;20223;-77
2023/01/09 12:09:42;;;;;;;6.25;4.65;;;10.60;99.90;;;;;;5084155;28;20227;-77
2023/01/09 12:12:20;;;;;;;5.88;5.28;;;10.50;99.90;;;;;;5092145;28;20240;-77
2023/01/09 12:15:21;;;;;;;4.95;4.05;;;10.50;99.90;;;;;;5084307;28;20668;-77
2023/01/09 12:18:10;;;;;;;4.70;4.28;;;10.60;99.90;;;;;;5084666;28;20227;-77
2023/01/09 12:20:54;;;;;;;4.40;4.00;;;10.60;99.90;;;;;;5094562;28;20251;-78
2023/01/09 12:23:34;;;;;;;8.57;5.30;;;10.60;99.90;;;;;;5095173;28;20284;-78
2023/01/09 12:26:15;;;;;;;9.23;7.80;;;10.60;99.90;;;;;;5084153;28;20305;-77
2023/01/09 12:29:10;;;;;;;12.35;9.57;;;10.60;99.90;;;;;;5094711;28;20234;-79
2023/01/09 12:31:51;;;;;;;10.40;6.78;;;10.70;99.90;;;;;;5091446;28;20681;-78
2023/01/09 12:34:36;;;;;;;5.22;4.70;;;10.70;99.90;;;;;;5081371;28;20227;-77
2023/01/09 12:40:24;;;;;;;4.88;3.60;;;10.60;99.90;;;;;;5060030;28;20234;-78
2023/01/09 12:43:08;;;;;;;4.63;4.28;;;10.60;99.90;;;;;;5067160;28;20234;-78
2023/01/09 12:45:46;;;;;;;6.93;4.13;;;10.50;99.90;;;;;;5076254;28;20656;-77
2023/01/09 12:48:43;;;;;;;4.97;3.20;;;10.50;99.90;;;;;;5068540;28;20241;-79
2023/01/09 12:51:42;;;;;;;4.40;3.97;;;10.50;99.90;;;;;;5090655;28;20258;-78
2023/01/09 12:54:21;;;;;;;3.15;2.80;;;10.50;99.90;;;;;;5070655;28;20219;-78
2023/01/09 12:57:08;;;;;;;3.28;2.33;;;10.50;99.90;;;;;;5085799;28;20208;-77
2023/01/09 12:59:38;;;;;;;4.03;3.17;;;10.50;99.90;;;;;;5093974;28;20613;-78
2023/01/09 13:02:32;;;;;;;;;;;;;;;;;;;;;
2023/01/09 13:05:16;;;;;;;11.25;8.52;;;10.50;99.90;;;;;;5061032;28;20255;-78
2023/01/09 13:07:50;;;;;;;9.02;7.75;;;10.50;99.90;;;;;;5072364;28;20286;-78
2023/01/09 13:10:22;;;;;;;6.20;5.35;;;10.50;99.90;;;;;;5072483;28;20231;-78
2023/01/09 13:12:53;;;;;;;10.18;5.13;;;10.50;99.90;;;;;;5073242;28;20323;-77
2023/01/09 13:15:28;;;;;;;5.55;4.07;;;10.60;99.90;;;;;;5072116;28;20713;-78
2023/01/09 13:18:03;;;;;;;10.63;7.72;;;10.60;99.90;;;;;;5080328;28;20242;-77
2023/01/09 13:20:36;;;;;;;5.20;3.40;;;10.60;99.90;;;;;;5092920;28;20310;-78
2023/01/09 13:23:15;;;;;;;4.90;3.65;;;10.50;99.90;;;;;;5092820;28;20250;-77
2023/01/09 13:25:46;;;;;;;5.70;3.55;;;10.50;99.90;;;;;;5082053;28;20223;-77
2023/01/09 13:28:21;;;;;;;2.88;2.65;;;10.60;99.90;;;;;;5091341;28;20318;-77
2023/01/09 13:31:12;;;;;;;3.55;3.25;;;10.60;99.90;;;;;;5092406;28;20245;-78